sensor_id;sensor_type;location;lat;lon;timestamp;P1;P2;P0
58740;PMS7003;44512;53.046;18.604;2022-12-29T00:00:43;22;18;13
58740;PMS7003;44512;53.046;18.604;2022-12-29T00:11:13;22;19;14
58740;PMS7003;44512;53.046;18.604;2022-12-29T00:21:40;17;16;13
58740;PMS7003;44512;53.046;18.604;2022-12-29T00:32:09;20;14;11
58740;PMS7003;44512;53.046;18.604;2022-12-29T00:42:37;17;14;11
58740;PMS7003;44512;53.046;18.604;2022-12-29T00:53:05;18;14;11
58740;PMS7003;44512;53.046;18.604;2022-12-29T01:03:34;24;17;13
58740;PMS7003;44512;53.046;18.604;2022-12-29T01:14:02;25;19;15
58740;PMS7003;44512;53.046;18.604;2022-12-29T01:24:30;22;17;12
58740;PMS7003;44512;53.046;18.604;2022-12-29T01:35:02;15;15;12
58740;PMS7003;44512;53.046;18.604;2022-12-29T01:45:28;18;16;13
58740;PMS7003;44512;53.046;18.604;2022-12-29T01:55:57;15;14;9
58740;PMS7003;44512;53.046;18.604;2022-12-29T02:06:26;20;16;12
58740;PMS7003;44512;53.046;18.604;2022-12-29T02:27:29;23;19;14
58740;PMS7003;44512;53.046;18.604;2022-12-29T02:37:54;20;17;13
58740;PMS7003;44512;53.046;18.604;2022-12-29T02:48:20;20;17;13
58740;PMS7003;44512;53.046;18.604;2022-12-29T02:58:46;21;18;13
58740;PMS7003;44512;53.046;18.604;2022-12-29T03:19:47;19;15;11
58740;PMS7003;44512;53.046;18.604;2022-12-29T03:30:11;21;13;10
58740;PMS7003;44512;53.046;18.604;2022-12-29T03:40:41;15;13;9
58740;PMS7003;44512;53.046;18.604;2022-12-29T03:51:08;16;14;10
58740;PMS7003;44512;53.046;18.604;2022-12-29T04:01:36;14;13;10
58740;PMS7003;44512;53.046;18.604;2022-12-29T04:12:05;12;11;8
58740;PMS7003;44512;53.046;18.604;2022-12-29T04:22:33;13;11;7
58740;PMS7003;44512;53.046;18.604;2022-12-29T04:33:02;13;10;8
58740;PMS7003;44512;53.046;18.604;2022-12-29T04:43:30;15;12;8
58740;PMS7003;44512;53.046;18.604;2022-12-29T04:53:59;13;10;8
58740;PMS7003;44512;53.046;18.604;2022-12-29T05:04:27;11;8;7
58740;PMS7003;44512;53.046;18.604;2022-12-29T05:14:55;13;10;7
58740;PMS7003;44512;53.046;18.604;2022-12-29T05:25:23;12;9;7
58740;PMS7003;44512;53.046;18.604;2022-12-29T05:35:52;14;12;9
58740;PMS7003;44512;53.046;18.604;2022-12-29T05:46:20;12;10;8
58740;PMS7003;44512;53.046;18.604;2022-12-29T05:56:49;9;8;6
58740;PMS7003;44512;53.046;18.604;2022-12-29T06:07:18;10;8;6
58740;PMS7003;44512;53.046;18.604;2022-12-29T06:17:45;12;8;5
58740;PMS7003;44512;53.046;18.604;2022-12-29T06:28:14;10;9;8
58740;PMS7003;44512;53.046;18.604;2022-12-29T06:38:42;11;8;6
58740;PMS7003;44512;53.046;18.604;2022-12-29T06:49:11;10;8;6
58740;PMS7003;44512;53.046;18.604;2022-12-29T06:59:39;7;7;5
58740;PMS7003;44512;53.046;18.604;2022-12-29T07:10:07;6;6;5
58740;PMS7003;44512;53.046;18.604;2022-12-29T07:20:39;8;7;5
58740;PMS7003;44512;53.046;18.604;2022-12-29T07:31:05;8;7;5
58740;PMS7003;44512;53.046;18.604;2022-12-29T07:41:33;11;8;6
58740;PMS7003;44512;53.046;18.604;2022-12-29T07:52:01;9;6;5
58740;PMS7003;44512;53.046;18.604;2022-12-29T08:02:29;8;7;5
58740;PMS7003;44512;53.046;18.604;2022-12-29T08:12:58;8;7;5
58740;PMS7003;44512;53.046;18.604;2022-12-29T08:23:27;9;7;5
58740;PMS7003;44512;53.046;18.604;2022-12-29T08:33:55;10;7;5
58740;PMS7003;44512;53.046;18.604;2022-12-29T08:44:23;8;5;5
58740;PMS7003;44512;53.046;18.604;2022-12-29T08:54:51;6;5;4
58740;PMS7003;44512;53.046;18.604;2022-12-29T09:05:20;7;7;5
58740;PMS7003;44512;53.046;18.604;2022-12-29T09:15:48;9;5;4
58740;PMS7003;44512;53.046;18.604;2022-12-29T09:26:16;14;9;7
58740;PMS7003;44512;53.046;18.604;2022-12-29T09:41:27;0;0;0
58740;PMS7003;44512;53.046;18.604;2022-12-29T09:51:36;11;8;6
58740;PMS7003;44512;53.046;18.604;2022-12-29T10:01:45;9;6;5
58740;PMS7003;44512;53.046;18.604;2022-12-29T10:32:29;10;9;7
58740;PMS7003;44512;53.046;18.604;2022-12-29T10:52:46;9;6;4
58740;PMS7003;44512;53.046;18.604;2022-12-29T11:13:04;11;7;6
58740;PMS7003;44512;53.046;18.604;2022-12-29T11:33:23;10;9;6
58740;PMS7003;44512;53.046;18.604;2022-12-29T12:04:34;8;8;6
58740;PMS7003;44512;53.046;18.604;2022-12-29T12:34:36;11;9;7
58740;PMS7003;44512;53.046;18.604;2022-12-29T12:44:50;7;7;6
58740;PMS7003;44512;53.046;18.604;2022-12-29T12:55:09;9;8;6
58740;PMS7003;44512;53.046;18.604;2022-12-29T13:35:53;9;9;6
58740;PMS7003;44512;53.046;18.604;2022-12-29T13:56:22;14;9;7
58740;PMS7003;44512;53.046;18.604;2022-12-29T14:06:32;10;8;7
58740;PMS7003;44512;53.046;18.604;2022-12-29T14:16:40;9;9;6
58740;PMS7003;44512;53.046;18.604;2022-12-29T14:26:44;16;9;7
58740;PMS7003;44512;53.046;18.604;2022-12-29T14:46:58;15;11;7
58740;PMS7003;44512;53.046;18.604;2022-12-29T14:57:09;15;12;9
58740;PMS7003;44512;53.046;18.604;2022-12-29T15:07:21;14;12;9
58740;PMS7003;44512;53.046;18.604;2022-12-29T15:38:15;15;12;10
58740;PMS7003;44512;53.046;18.604;2022-12-29T15:48:43;17;12;9
58740;PMS7003;44512;53.046;18.604;2022-12-29T16:09:43;26;18;13
58740;PMS7003;44512;53.046;18.604;2022-12-29T16:30:36;25;17;13
58740;PMS7003;44512;53.046;18.604;2022-12-29T16:41:05;19;15;11
58740;PMS7003;44512;53.046;18.604;2022-12-29T16:51:36;18;15;11
58740;PMS7003;44512;53.046;18.604;2022-12-29T17:02:05;15;12;10
58740;PMS7003;44512;53.046;18.604;2022-12-29T17:12:30;17;13;11
58740;PMS7003;44512;53.046;18.604;2022-12-29T17:22:58;16;14;10
58740;PMS7003;44512;53.046;18.604;2022-12-29T17:33:26;12;11;8
58740;PMS7003;44512;53.046;18.604;2022-12-29T17:43:55;16;13;10
58740;PMS7003;44512;53.046;18.604;2022-12-29T17:54:24;18;13;10
58740;PMS7003;44512;53.046;18.604;2022-12-29T18:04:52;19;15;11
58740;PMS7003;44512;53.046;18.604;2022-12-29T18:15:21;17;16;13
58740;PMS7003;44512;53.046;18.604;2022-12-29T18:36:17;19;14;11
58740;PMS7003;44512;53.046;18.604;2022-12-29T18:46:46;18;15;12
58740;PMS7003;44512;53.046;18.604;2022-12-29T18:57:14;21;17;13
58740;PMS7003;44512;53.046;18.604;2022-12-29T19:07:42;14;13;10
58740;PMS7003;44512;53.046;18.604;2022-12-29T19:18:13;23;18;13
58740;PMS7003;44512;53.046;18.604;2022-12-29T19:28:39;22;17;11
58740;PMS7003;44512;53.046;18.604;2022-12-29T19:39:07;20;17;12
58740;PMS7003;44512;53.046;18.604;2022-12-29T19:49:36;22;19;13
58740;PMS7003;44512;53.046;18.604;2022-12-29T20:00:04;20;18;13
58740;PMS7003;44512;53.046;18.604;2022-12-29T20:10:32;17;15;12
58740;PMS7003;44512;53.046;18.604;2022-12-29T20:21:05;18;14;10
58740;PMS7003;44512;53.046;18.604;2022-12-29T20:31:30;18;13;10
58740;PMS7003;44512;53.046;18.604;2022-12-29T20:41:58;16;13;10
58740;PMS7003;44512;53.046;18.604;2022-12-29T21:02:55;17;14;10
58740;PMS7003;44512;53.046;18.604;2022-12-29T21:13:23;17;16;12
58740;PMS7003;44512;53.046;18.604;2022-12-29T21:23:51;19;15;12
58740;PMS7003;44512;53.046;18.604;2022-12-29T21:34:20;16;15;11
58740;PMS7003;44512;53.046;18.604;2022-12-29T21:44:48;19;13;9
58740;PMS7003;44512;53.046;18.604;2022-12-29T21:55:17;20;16;13
58740;PMS7003;44512;53.046;18.604;2022-12-29T22:05:45;22;18;13
58740;PMS7003;44512;53.046;18.604;2022-12-29T22:16:13;21;19;14
58740;PMS7003;44512;53.046;18.604;2022-12-29T22:26:42;22;20;14
58740;PMS7003;44512;53.046;18.604;2022-12-29T22:37:10;20;17;13
58740;PMS7003;44512;53.046;18.604;2022-12-29T22:47:38;21;18;14
58740;PMS7003;44512;53.046;18.604;2022-12-29T22:58:07;22;19;14
58740;PMS7003;44512;53.046;18.604;2022-12-29T23:08:36;18;16;12
58740;PMS7003;44512;53.046;18.604;2022-12-29T23:19:04;23;20;14
58740;PMS7003;44512;53.046;18.604;2022-12-29T23:29:32;24;20;15
58740;PMS7003;44512;53.046;18.604;2022-12-29T23:40:00;29;21;16
58740;PMS7003;44512;53.046;18.604;2022-12-29T23:50:29;21;19;14
